Time;durP1;ratioP1;P1;durP2;ratioP2;P2;SDS_P1;SDS_P2;PMS_P1;PMS_P2;Temp;Humidity;BMP_temperature;BMP_pressure;BME280_temperature;BME280_humidity;BME280_pressure;Samples;Min_cycle;Max_cycle;Signal;HPM_P1;HPM_P2
2023/07/02 00:03:55;;;;;;;3.35;1.48;;;;;;;-147.53;100.00;57128.34;10525580;28;20051;-82
2023/07/02 00:08:57;;;;;;;4.88;1.65;;;;;;;-147.53;100.00;57128.34;10524674;28;20086;-83
2023/07/02 00:13:59;;;;;;;5.10;1.65;;;;;;;-147.53;100.00;57128.34;10524739;28;20045;-82
2023/07/02 00:19:01;;;;;;;5.85;2.00;;;;;;;-147.53;100.00;57128.34;10521526;28;20041;-82
2023/07/02 00:24:03;;;;;;;3.17;1.40;;;;;;;-147.53;100.00;57128.34;10529137;28;20119;-82
2023/07/02 00:29:06;;;;;;;3.78;1.73;;;;;;;-147.53;100.00;57128.34;10514383;28;20047;-81
2023/07/02 00:34:07;;;;;;;4.32;1.77;;;;;;;-147.53;100.00;57128.34;10523073;28;20109;-82
2023/07/02 00:39:11;;;;;;;7.32;2.05;;;;;;;-147.53;100.00;57128.34;10505870;28;20044;-81
2023/07/02 00:44:14;;;;;;;3.45;1.65;;;;;;;-147.53;100.00;57128.34;10525181;28;20801;-82
2023/07/02 00:49:16;;;;;;;4.22;1.70;;;;;;;-147.53;100.00;57128.34;10521281;28;20045;-81
2023/07/02 00:54:18;;;;;;;5.47;1.90;;;;;;;-147.53;100.00;57128.34;10528664;28;20036;-81
2023/07/02 00:59:20;;;;;;;3.65;1.58;;;;;;;-147.53;100.00;57128.34;10487176;28;20036;-83
2023/07/02 01:04:27;;;;;;;3.67;1.88;;;;;;;-147.53;100.00;57128.34;10523882;28;20044;-81
2023/07/02 01:09:30;;;;;;;5.18;1.70;;;;;;;-147.53;100.00;57128.34;10506014;28;20058;-82
2023/07/02 01:14:45;;;;;;;8.05;2.35;;;;;;;-147.53;100.00;57128.34;10524260;28;20107;-82
2023/07/02 01:19:51;;;;;;;6.03;2.13;;;;;;;-147.53;100.00;57128.34;10522406;28;20048;-81
2023/07/02 01:24:53;;;;;;;4.22;1.70;;;;;;;-147.53;100.00;57128.34;10527226;28;20044;-81
2023/07/02 01:29:56;;;;;;;5.95;2.20;;;;;;;-147.53;100.00;57128.34;10503188;28;20048;-83
2023/07/02 01:34:58;;;;;;;7.28;2.03;;;;;;;-147.53;100.00;57128.34;10523111;28;20040;-80
2023/07/02 01:40:00;;;;;;;7.68;2.20;;;;;;;-147.53;100.00;57128.34;10507101;28;20049;-81
2023/07/02 01:45:02;;;;;;;7.00;2.45;;;;;;;-147.53;100.00;57128.34;10521126;28;20086;-82
2023/07/02 01:50:05;;;;;;;8.05;2.33;;;;;;;-147.53;100.00;57128.34;10498132;28;20593;-81
2023/07/02 01:55:07;;;;;;;6.93;1.98;;;;;;;-147.53;100.00;57128.34;10515625;28;20044;-81
2023/07/02 02:00:09;;;;;;;10.23;2.47;;;;;;;-147.53;100.00;57128.34;10507834;28;20036;-82
2023/07/02 02:05:16;;;;;;;9.95;2.60;;;;;;;-147.53;100.00;57128.34;10525921;28;20068;-81
2023/07/02 02:10:18;;;;;;;7.82;2.30;;;;;;;-147.53;100.00;57128.34;10526663;28;20071;-82
2023/07/02 02:15:20;;;;;;;8.50;2.42;;;;;;;-147.53;100.00;57128.34;10507723;28;20129;-82
2023/07/02 02:20:21;;;;;;;9.27;2.60;;;;;;;-147.53;100.00;57128.34;10492550;28;20106;-82
2023/07/02 02:25:24;;;;;;;8.10;2.28;;;;;;;-147.53;100.00;57128.34;10494135;28;20052;-81
2023/07/02 02:30:26;;;;;;;7.18;2.08;;;;;;;-147.53;100.00;57128.34;10528891;28;20040;-82
2023/07/02 02:35:28;;;;;;;8.02;2.50;;;;;;;-147.53;100.00;57128.34;10508770;28;20055;-82
2023/07/02 02:40:30;;;;;;;8.38;2.70;;;;;;;-147.53;100.00;57128.34;10544373;28;20762;-82
2023/07/02 02:45:31;;;;;;;6.22;2.50;;;;;;;-147.53;100.00;57128.34;10526884;28;20476;-81
2023/07/02 02:50:33;;;;;;;8.88;2.72;;;;;;;-147.53;100.00;57128.34;10508520;28;20324;-82
2023/07/02 02:55:38;;;;;;;9.65;2.50;;;;;;;-147.53;100.00;57128.34;10506807;28;20043;-83
2023/07/02 03:00:42;;;;;;;9.43;2.40;;;;;;;-147.53;100.00;57128.34;10509543;28;20109;-81
2023/07/02 03:05:46;;;;;;;6.88;2.58;;;;;;;-147.53;100.00;57128.34;10509456;28;20081;-82
2023/07/02 03:10:48;;;;;;;5.65;2.35;;;;;;;-147.53;100.00;57128.34;10530307;28;20492;-82
2023/07/02 03:15:50;;;;;;;8.23;2.80;;;;;;;-147.53;100.00;57128.34;10530246;28;20101;-81
2023/07/02 03:20:52;;;;;;;9.15;2.63;;;;;;;-147.53;100.00;57128.34;10516247;28;20052;-81
2023/07/02 03:25:53;;;;;;;7.30;2.67;;;;;;;-147.53;100.00;57128.34;10539868;28;20043;-82
2023/07/02 03:30:55;;;;;;;6.25;2.20;;;;;;;-147.53;100.00;57128.34;10528063;28;20121;-83
2023/07/02 03:35:56;;;;;;;10.65;2.88;;;;;;;-147.53;100.00;57128.34;10516615;28;20050;-82
2023/07/02 03:40:58;;;;;;;7.40;2.72;;;;;;;-147.53;100.00;57128.34;10518190;28;20101;-82
2023/07/02 03:46:00;;;;;;;10.25;2.67;;;;;;;-147.53;100.00;57128.34;10533973;28;20121;-81
2023/07/02 03:51:03;;;;;;;9.07;2.28;;;;;;;-147.53;100.00;57128.34;10532043;28;20433;-82
2023/07/02 03:56:04;;;;;;;6.88;2.13;;;;;;;-147.53;100.00;57128.34;10510195;28;20051;-81
2023/07/02 04:01:06;;;;;;;10.30;2.45;;;;;;;-147.53;100.00;57128.34;10533564;28;20044;-81
2023/07/02 04:06:08;;;;;;;11.70;2.90;;;;;;;-147.53;100.00;57128.34;10535916;28;20136;-81
2023/07/02 04:11:10;;;;;;;12.75;2.90;;;;;;;-147.53;100.00;57128.34;10550074;28;20069;-81
2023/07/02 04:16:12;;;;;;;11.10;3.22;;;;;;;-147.53;100.00;57128.34;10517164;28;20051;-80
2023/07/02 04:21:14;;;;;;;10.65;3.55;;;;;;;-147.53;100.00;57128.34;10518564;28;20658;-82
2023/07/02 04:26:15;;;;;;;9.70;3.67;;;;;;;-147.53;100.00;57128.34;10517825;28;20101;-81
2023/07/02 04:31:37;;;;;;;12.68;3.38;;;;;;;-147.53;100.00;57128.34;10517263;28;20046;-80
2023/07/02 04:36:38;;;;;;;12.35;2.90;;;;;;;-147.53;100.00;57128.34;10535875;28;20108;-79
2023/07/02 04:41:40;;;;;;;15.98;3.65;;;;;;;-147.53;100.00;57128.34;10518051;28;20051;-80
2023/07/02 04:46:42;;;;;;;10.05;2.95;;;;;;;-147.53;100.00;57128.34;10482101;28;20106;-80
2023/07/02 04:51:43;;;;;;;9.25;2.88;;;;;;;-147.53;100.00;57128.34;10485412;28;20537;-80
2023/07/02 04:56:45;;;;;;;13.75;3.38;;;;;;;-147.53;100.00;57128.34;10513888;28;20040;-81
2023/07/02 05:01:46;;;;;;;15.00;4.28;;;;;;;-147.53;100.00;57128.34;10519694;28;20430;-81
2023/07/02 05:06:48;;;;;;;15.13;3.20;;;;;;;-147.53;100.00;57128.34;10500006;28;20057;-82
2023/07/02 05:11:50;;;;;;;14.45;4.18;;;;;;;-147.53;100.00;57128.34;10512220;28;20059;-79
2023/07/02 05:16:52;;;;;;;8.65;2.67;;;;;;;-147.53;100.00;57128.34;10494304;28;20055;-80
2023/07/02 05:21:54;;;;;;;11.15;2.88;;;;;;;-147.53;100.00;57128.34;10502098;28;20449;-80
2023/07/02 05:26:55;;;;;;;13.10;3.25;;;;;;;-147.53;100.00;57128.34;10496321;28;20129;-79
2023/07/02 05:31:57;;;;;;;10.98;3.53;;;;;;;-147.53;100.00;57128.34;10489482;28;20153;-81
2023/07/02 05:36:59;;;;;;;14.90;3.65;;;;;;;-147.53;100.00;57128.34;10472253;28;20049;-79
2023/07/02 05:42:00;;;;;;;16.20;4.10;;;;;;;-147.53;100.00;57128.34;10488373;28;20055;-80
2023/07/02 05:47:02;;;;;;;15.05;2.60;;;;;;;-147.53;100.00;57128.34;10529121;28;20063;-80
2023/07/02 05:52:04;;;;;;;14.18;3.80;;;;;;;-147.53;100.00;57128.34;10513057;28;20040;-80
2023/07/02 05:57:05;;;;;;;25.08;4.35;;;;;;;-147.53;100.00;57128.34;10519244;28;20396;-79
2023/07/02 06:02:07;;;;;;;11.20;3.35;;;;;;;-147.53;100.00;57128.34;10525146;28;20123;-78
2023/07/02 06:07:09;;;;;;;10.07;3.17;;;;;;;-147.53;100.00;57128.34;10499123;28;20044;-80
2023/07/02 06:12:10;;;;;;;15.93;3.75;;;;;;;-147.53;100.00;57128.34;10490467;28;20049;-79
2023/07/02 06:17:12;;;;;;;11.35;3.67;;;;;;;-147.53;100.00;57128.34;10504165;28;20083;-78
2023/07/02 06:22:14;;;;;;;20.63;3.78;;;;;;;-147.53;100.00;57128.34;10498264;28;20032;-78
2023/07/02 06:27:15;;;;;;;15.98;3.80;;;;;;;-147.53;100.00;57128.34;10512810;28;20861;-79
2023/07/02 06:32:17;;;;;;;20.83;4.25;;;;;;;-147.53;100.00;57128.34;10495235;28;20048;-79
2023/07/02 06:37:19;;;;;;;11.93;3.38;;;;;;;-147.53;100.00;57128.34;10508746;28;20433;-79
2023/07/02 06:42:21;;;;;;;15.98;3.88;;;;;;;-147.53;100.00;57128.34;10503722;28;20744;-78
2023/07/02 06:47:22;;;;;;;16.65;4.05;;;;;;;-147.53;100.00;57128.34;10470826;28;20147;-78
2023/07/02 06:52:24;;;;;;;14.32;4.00;;;;;;;-147.53;100.00;57128.34;10502113;28;20141;-79
2023/07/02 06:57:26;;;;;;;10.93;3.20;;;;;;;-147.53;100.00;57128.34;10495196;28;20131;-77
2023/07/02 07:02:27;;;;;;;12.15;3.22;;;;;;;-147.53;100.00;57128.34;10517390;28;20046;-78
2023/07/02 07:07:29;;;;;;;12.27;3.22;;;;;;;-147.53;100.00;57128.34;10508702;28;20047;-78
2023/07/02 07:12:31;;;;;;;13.15;3.50;;;;;;;-147.53;100.00;57128.34;10495007;28;20040;-78
2023/07/02 07:17:32;;;;;;;7.47;2.38;;;;;;;-147.53;100.00;57128.34;10507971;28;20079;-79
2023/07/02 07:22:34;;;;;;;8.48;2.50;;;;;;;-147.53;100.00;57128.34;10510468;28;20040;-77
2023/07/02 07:27:36;;;;;;;11.07;3.10;;;;;;;-147.53;100.00;57128.34;10491644;28;20054;-79
2023/07/02 07:32:37;;;;;;;8.20;3.05;;;;;;;-147.53;100.00;57128.34;10530018;28;20152;-76
2023/07/02 07:37:39;;;;;;;8.38;2.58;;;;;;;-147.53;100.00;57128.34;10493815;28;20052;-77
2023/07/02 07:42:50;;;;;;;14.35;2.95;;;;;;;-147.53;100.00;57128.34;10454690;28;20033;-80
2023/07/02 07:47:52;;;;;;;8.73;2.65;;;;;;;-147.53;100.00;57128.34;10455864;28;20116;-78
2023/07/02 07:52:53;;;;;;;12.07;2.90;;;;;;;-147.53;100.00;57128.34;10460669;28;20045;-76
2023/07/02 07:57:55;;;;;;;6.50;2.45;;;;;;;-147.53;100.00;57128.34;10496110;28;20111;-79
2023/07/02 08:02:57;;;;;;;14.00;3.03;;;;;;;-147.53;100.00;57128.34;10466074;28;20037;-79
2023/07/02 08:07:59;;;;;;;7.18;2.10;;;;;;;-147.53;100.00;57128.34;10489401;28;20123;-81
2023/07/02 08:13:01;;;;;;;7.28;2.22;;;;;;;-147.53;100.00;57128.34;10395369;28;20497;-80
2023/07/02 08:18:03;;;;;;;6.15;2.65;;;;;;;-147.53;100.00;57128.34;10454256;28;20064;-82
2023/07/02 08:23:05;;;;;;;11.15;2.65;;;;;;;-147.53;100.00;57128.34;10477513;28;20049;-83
2023/07/02 08:28:06;;;;;;;7.82;2.20;;;;;;;-147.53;100.00;57128.34;10509266;28;20080;-82
2023/07/02 08:33:08;;;;;;;6.22;1.88;;;;;;;-147.53;100.00;57128.34;10507549;27;20060;-83
2023/07/02 08:38:10;;;;;;;7.25;2.50;;;;;;;-147.53;100.00;57128.34;10457878;28;20068;-88
2023/07/02 08:43:12;;;;;;;11.95;2.70;;;;;;;-147.53;100.00;57128.34;10485633;28;20102;-83
2023/07/02 08:48:14;;;;;;;11.85;3.42;;;;;;;-147.53;100.00;57128.34;10504734;28;20076;-89
2023/07/02 08:53:25;;;;;;;14.20;2.97;;;;;;;-147.53;100.00;57128.34;10478150;28;20044;-89
2023/07/02 08:58:29;;;;;;;8.85;2.33;;;;;;;-147.53;100.00;57128.34;10466294;28;20040;-85
2023/07/02 09:03:31;;;;;;;13.05;3.30;;;;;;;-147.53;100.00;57128.34;10490418;28;20040;-81
2023/07/02 09:08:33;;;;;;;13.05;3.50;;;;;;;-147.53;100.00;57128.34;10506539;28;20052;-84
2023/07/02 09:14:02;;;;;;;16.58;3.22;;;;;;;-147.53;100.00;57128.34;10495106;28;20067;-83
2023/07/02 09:19:08;;;;;;;7.78;2.22;;;;;;;-147.53;100.00;57128.34;10475869;28;20510;-87
2023/07/02 09:24:23;;;;;;;16.52;3.08;;;;;;;-147.53;100.00;57128.34;10531886;28;20048;-87
2023/07/02 09:29:31;;;;;;;10.15;2.65;;;;;;;-147.53;100.00;57128.34;10483489;28;20059;-86
2023/07/02 09:34:35;;;;;;;11.15;2.13;;;;;;;-147.53;100.00;57128.34;10472720;28;20032;-83
2023/07/02 09:39:39;;;;;;;6.70;1.73;;;;;;;-147.53;100.00;57128.34;10492753;28;20068;-85
2023/07/02 09:44:49;;;;;;;10.50;2.20;;;;;;;-147.53;100.00;57128.34;10477304;28;20041;-85
2023/07/02 09:49:59;;;;;;;14.43;2.67;;;;;;;-147.53;100.00;57128.34;10469168;28;20071;-83
2023/07/02 09:55:03;;;;;;;9.20;2.25;;;;;;;-147.53;100.00;57128.34;10483811;28;20147;-85
2023/07/02 10:05:42;;;;;;;13.27;2.22;;;;;;;-147.53;100.00;57128.34;10452039;28;20036;-84
2023/07/02 10:10:48;;;;;;;4.15;1.45;;;;;;;-147.53;100.00;57128.34;10453094;28;20072;-85
2023/07/02 10:16:20;;;;;;;5.95;1.20;;;;;;;-147.53;100.00;57128.34;10458035;28;20075;-86
2023/07/02 10:21:24;;;;;;;5.38;1.60;;;;;;;-147.53;100.00;57128.34;10457910;28;20417;-87
2023/07/02 10:26:27;;;;;;;7.72;1.98;;;;;;;-147.53;100.00;57128.34;10453866;28;20048;-81
2023/07/02 10:31:29;;;;;;;7.07;1.67;;;;;;;-147.53;100.00;57128.34;10472223;28;20041;-80
2023/07/02 10:36:31;;;;;;;6.22;2.03;;;;;;;-147.53;100.00;57128.34;10499227;28;20147;-81
2023/07/02 10:41:33;;;;;;;7.55;1.88;;;;;;;-147.53;100.00;57128.34;10492056;28;20086;-80
2023/07/02 10:46:43;;;;;;;4.78;1.60;;;;;;;-147.53;100.00;57128.34;10502245;28;20094;-80
2023/07/02 10:51:45;;;;;;;5.40;1.98;;;;;;;-147.53;100.00;57128.34;10503197;28;20083;-79
2023/07/02 10:56:46;;;;;;;4.65;1.35;;;;;;;-147.53;100.00;57128.34;10503912;28;20098;-79
2023/07/02 11:01:50;;;;;;;3.95;1.35;;;;;;;-147.53;100.00;57128.34;10495852;28;20080;-79
2023/07/02 11:06:52;;;;;;;10.02;1.80;;;;;;;-147.53;100.00;57128.34;10507953;28;20048;-80
2023/07/02 11:11:58;;;;;;;5.05;1.35;;;;;;;-147.53;100.00;57128.34;10497335;28;20522;-79
2023/07/02 11:17:04;;;;;;;8.98;1.77;;;;;;;-147.53;100.00;57128.34;10498304;28;20040;-79
2023/07/02 11:22:06;;;;;;;5.53;1.48;;;;;;;-147.53;100.00;57128.34;10488041;28;20052;-80
2023/07/02 11:27:08;;;;;;;4.70;1.50;;;;;;;-147.53;100.00;57128.34;10506956;28;20053;-79
2023/07/02 11:32:11;;;;;;;7.47;1.67;;;;;;;-147.53;100.00;57128.34;10484839;28;20365;-80
2023/07/02 11:37:13;;;;;;;5.43;1.63;;;;;;;-147.53;100.00;57128.34;10531582;28;20044;-79
2023/07/02 11:42:15;;;;;;;6.85;2.38;;;;;;;-147.53;100.00;57128.34;10522915;28;20044;-80
2023/07/02 11:47:16;;;;;;;5.28;1.25;;;;;;;-147.53;100.00;57128.34;10510316;28;20076;-81
2023/07/02 11:52:19;;;;;;;3.03;1.58;;;;;;;-147.53;100.00;57128.34;10499577;28;20048;-79
2023/07/02 11:57:21;;;;;;;6.10;1.73;;;;;;;-147.53;100.00;57128.34;10514761;28;20544;-80
2023/07/02 12:02:23;;;;;;;3.83;1.23;;;;;;;-147.53;100.00;57128.34;10487494;28;20090;-79
2023/07/02 12:07:25;;;;;;;8.30;1.55;;;;;;;-147.53;100.00;57128.34;10517950;28;20061;-80
2023/07/02 12:12:27;;;;;;;6.63;2.53;;;;;;;-147.53;100.00;57128.34;10499236;28;20107;-81
2023/07/02 12:17:28;;;;;;;6.97;2.03;;;;;;;-147.53;100.00;57128.34;10498443;28;20051;-80
2023/07/02 12:22:30;;;;;;;7.43;2.35;;;;;;;-147.53;100.00;57128.34;10518550;28;20124;-80
2023/07/02 12:27:32;;;;;;;5.65;1.98;;;;;;;-147.53;100.00;57128.34;10517550;28;20070;-79
2023/07/02 12:32:34;;;;;;;7.68;2.13;;;;;;;-147.53;100.00;57128.34;10508998;28;20052;-83
2023/07/02 12:37:44;;;;;;;8.55;1.75;;;;;;;-147.53;100.00;57128.34;10485466;28;20049;-82
2023/07/02 12:42:47;;;;;;;5.03;1.95;;;;;;;-147.53;100.00;57128.34;10489640;28;20040;-81
2023/07/02 12:47:49;;;;;;;10.52;2.00;;;;;;;-147.53;100.00;57128.34;10506085;28;20045;-82
2023/07/02 12:52:51;;;;;;;6.18;1.65;;;;;;;-147.53;100.00;57128.34;10509657;28;20062;-80
2023/07/02 12:57:52;;;;;;;9.02;1.92;;;;;;;-147.53;100.00;57128.34;10503034;28;20048;-82
2023/07/02 13:02:54;;;;;;;6.45;1.70;;;;;;;-147.53;100.00;57128.34;10487565;28;20147;-82
2023/07/02 13:08:06;;;;;;;9.55;2.33;;;;;;;-147.53;100.00;57128.34;10501761;28;20355;-82
2023/07/02 13:13:08;;;;;;;8.00;2.10;;;;;;;-147.53;100.00;57128.34;10504807;28;20265;-82
2023/07/02 13:18:23;;;;;;;4.97;1.73;;;;;;;-147.53;100.00;57128.34;10497890;28;20209;-83
2023/07/02 13:23:26;;;;;;;7.00;2.03;;;;;;;-147.53;100.00;57128.34;10507590;28;20067;-82
2023/07/02 13:28:28;;;;;;;7.22;2.15;;;;;;;-147.53;100.00;57128.34;10484250;28;20094;-82
2023/07/02 13:33:30;;;;;;;5.72;1.90;;;;;;;-147.53;100.00;57128.34;10502309;28;20048;-83
2023/07/02 13:38:32;;;;;;;5.20;1.38;;;;;;;-147.53;100.00;57128.34;10505845;28;20067;-81
2023/07/02 13:43:34;;;;;;;7.80;2.10;;;;;;;-147.53;100.00;57128.34;10503700;28;20041;-82
2023/07/02 13:48:36;;;;;;;7.53;1.35;;;;;;;-147.53;100.00;57128.34;10502663;28;20055;-83
2023/07/02 13:53:38;;;;;;;6.50;2.38;;;;;;;-147.53;100.00;57128.34;10505502;28;20051;-83
2023/07/02 13:58:47;;;;;;;7.30;2.00;;;;;;;-147.53;100.00;57128.34;10501913;28;20136;-83
2023/07/02 14:03:49;;;;;;;4.03;1.40;;;;;;;-147.53;100.00;57128.34;10484859;28;20067;-82
2023/07/02 14:08:51;;;;;;;4.03;1.48;;;;;;;-147.53;100.00;57128.34;10502762;28;20044;-82
2023/07/02 14:13:53;;;;;;;7.30;1.60;;;;;;;-147.53;100.00;57128.34;10501640;28;20037;-83
2023/07/02 14:18:54;;;;;;;3.95;1.42;;;;;;;-147.53;100.00;57128.34;10502664;28;20056;-83
2023/07/02 14:23:58;;;;;;;5.78;1.80;;;;;;;-147.53;100.00;57128.34;10508447;28;20102;-83
2023/07/02 14:28:59;;;;;;;8.90;1.60;;;;;;;-147.53;100.00;57128.34;10511076;28;20102;-82
2023/07/02 14:34:01;;;;;;;5.40;1.52;;;;;;;-147.53;100.00;57128.34;10503423;28;20098;-83
2023/07/02 14:39:03;;;;;;;5.25;1.48;;;;;;;-147.53;100.00;57128.34;10471295;28;20044;-83
2023/07/02 14:44:05;;;;;;;4.35;1.30;;;;;;;-147.53;100.00;57128.34;10485307;28;20084;-83
2023/07/02 14:49:06;;;;;;;6.50;1.50;;;;;;;-147.53;100.00;57128.34;10500808;28;20068;-82
2023/07/02 14:54:08;;;;;;;5.20;2.28;;;;;;;-147.53;100.00;57128.34;10511953;28;20053;-83
2023/07/02 14:59:10;;;;;;;4.97;1.40;;;;;;;-147.53;100.00;57128.34;10488171;28;20048;-81
2023/07/02 15:04:11;;;;;;;3.42;1.27;;;;;;;-147.53;100.00;57128.34;10495628;28;20052;-82
2023/07/02 15:09:13;;;;;;;7.60;1.70;;;;;;;-147.53;100.00;57128.34;10504853;28;20036;-82
2023/07/02 15:14:18;;;;;;;12.00;1.70;;;;;;;-147.53;100.00;57128.34;10462515;28;20044;-81
2023/07/02 15:19:20;;;;;;;6.50;1.70;;;;;;;-147.53;100.00;57128.34;10524653;28;20082;-81
2023/07/02 15:24:24;;;;;;;6.38;1.55;;;;;;;-147.53;100.00;57128.34;10520734;28;20036;-81
2023/07/02 15:29:26;;;;;;;7.72;1.75;;;;;;;-147.53;100.00;57128.34;10493046;28;20112;-82
2023/07/02 15:34:27;;;;;;;6.82;1.35;;;;;;;-147.53;100.00;57128.34;10493916;28;20040;-80
2023/07/02 15:39:32;;;;;;;4.15;1.52;;;;;;;-147.53;100.00;57128.34;10509213;28;20036;-81
2023/07/02 15:44:34;;;;;;;6.53;1.95;;;;;;;-147.53;100.00;57128.34;10512027;28;20070;-81
2023/07/02 15:49:38;;;;;;;7.25;2.20;;;;;;;-147.53;100.00;57128.34;10498213;28;20768;-81
2023/07/02 15:54:40;;;;;;;6.47;2.28;;;;;;;-147.53;100.00;57128.34;10495464;28;20043;-82
2023/07/02 15:59:41;;;;;;;7.47;2.00;;;;;;;-147.53;100.00;57128.34;10488477;28;20083;-82
2023/07/02 16:04:45;;;;;;;9.57;2.50;;;;;;;-147.53;100.00;57128.34;10513212;28;20040;-81
2023/07/02 16:09:48;;;;;;;5.82;1.98;;;;;;;-147.53;100.00;57128.34;10511289;28;20063;-80
2023/07/02 16:14:50;;;;;;;4.72;1.90;;;;;;;-147.53;100.00;57128.34;10492631;28;20547;-81
2023/07/02 16:19:51;;;;;;;6.88;2.08;;;;;;;-147.53;100.00;57128.34;10513373;28;20072;-80
2023/07/02 16:24:53;;;;;;;9.73;2.53;;;;;;;-147.53;100.00;57128.34;10517295;28;20044;-81
2023/07/02 16:29:56;;;;;;;6.18;2.03;;;;;;;-147.53;100.00;57128.34;10486242;28;20045;-81
2023/07/02 16:34:58;;;;;;;8.70;1.88;;;;;;;-147.53;100.00;57128.34;10499319;28;20037;-80
2023/07/02 16:40:00;;;;;;;9.07;2.40;;;;;;;-147.53;100.00;57128.34;10518409;28;20036;-80
2023/07/02 16:45:05;;;;;;;7.22;2.10;;;;;;;-147.53;100.00;57128.34;10499275;28;20041;-81
2023/07/02 16:50:07;;;;;;;6.53;1.88;;;;;;;-147.53;100.00;57128.34;10509230;28;20421;-81
2023/07/02 16:55:09;;;;;;;7.05;2.63;;;;;;;-147.53;100.00;57128.34;10500540;28;20098;-81
2023/07/02 17:00:11;;;;;;;8.50;2.47;;;;;;;-147.53;100.00;57128.34;10495782;28;20115;-81
2023/07/02 17:05:13;;;;;;;8.73;2.20;;;;;;;-147.53;100.00;57128.34;10513100;28;20040;-82
2023/07/02 17:10:15;;;;;;;10.82;2.10;;;;;;;-147.53;100.00;57128.34;10497751;28;20102;-81
2023/07/02 17:15:16;;;;;;;8.10;2.20;;;;;;;-147.53;100.00;57128.34;10504395;28;20128;-81
2023/07/02 17:20:18;;;;;;;6.03;2.25;;;;;;;-147.53;100.00;57128.34;10518644;28;20081;-82
2023/07/02 17:25:19;;;;;;;8.00;2.10;;;;;;;-147.53;100.00;57128.34;10502234;28;20047;-81
2023/07/02 17:30:21;;;;;;;5.93;1.92;;;;;;;-147.53;100.00;57128.34;10514680;28;20049;-80
2023/07/02 17:35:23;;;;;;;10.63;2.20;;;;;;;-147.53;100.00;57128.34;10497465;28;21129;-82
2023/07/02 17:40:24;;;;;;;5.10;1.63;;;;;;;-147.53;100.00;57128.34;10498752;28;20075;-82
2023/07/02 17:45:26;;;;;;;5.88;1.92;;;;;;;-147.53;100.00;57128.34;10517391;28;20048;-80
2023/07/02 17:50:27;;;;;;;5.88;1.80;;;;;;;-147.53;100.00;57128.34;10519975;28;20146;-82
2023/07/02 17:55:29;;;;;;;7.82;2.17;;;;;;;-147.53;100.00;57128.34;10517023;28;20066;-80
2023/07/02 18:00:30;;;;;;;6.70;1.75;;;;;;;-147.53;100.00;57128.34;10517619;28;20062;-80
2023/07/02 18:05:32;;;;;;;5.07;1.60;;;;;;;-147.53;100.00;57128.34;10490509;28;20048;-82
2023/07/02 18:10:34;;;;;;;5.68;2.00;;;;;;;-147.53;100.00;57128.34;10503709;28;20475;-80
2023/07/02 18:15:36;;;;;;;6.88;2.00;;;;;;;-147.53;100.00;57128.34;10491617;28;20223;-81
2023/07/02 18:20:37;;;;;;;6.07;1.67;;;;;;;-147.53;100.00;57128.34;10516974;28;20059;-80
2023/07/02 18:25:39;;;;;;;6.15;2.10;;;;;;;-147.53;100.00;57128.34;10512515;28;20067;-82
2023/07/02 18:30:43;;;;;;;5.47;1.73;;;;;;;-147.53;100.00;57128.34;10496485;28;20039;-82
2023/07/02 18:35:47;;;;;;;7.38;1.58;;;;;;;-147.53;100.00;57128.34;10491253;28;20052;-80
2023/07/02 18:41:01;;;;;;;9.82;2.20;;;;;;;-147.53;100.00;57128.34;10504366;28;20711;-82
2023/07/02 18:46:05;;;;;;;8.65;2.60;;;;;;;-147.53;100.00;57128.34;10494251;28;20075;-82
2023/07/02 18:51:07;;;;;;;4.88;1.50;;;;;;;-147.53;100.00;57128.34;10509253;28;20054;-81
2023/07/02 18:56:08;;;;;;;8.57;1.88;;;;;;;-147.53;100.00;57128.34;10520066;28;20048;-81
2023/07/02 19:01:15;;;;;;;6.22;1.67;;;;;;;-147.53;100.00;57128.34;10522460;28;20446;-81
2023/07/02 19:06:17;;;;;;;5.97;1.50;;;;;;;-147.53;100.00;57128.34;10504561;28;20057;-80
2023/07/02 19:11:19;;;;;;;8.85;2.20;;;;;;;-147.53;100.00;57128.34;10522530;28;20036;-81
2023/07/02 19:16:21;;;;;;;9.65;2.40;;;;;;;-147.53;100.00;57128.34;10529188;28;20131;-80
2023/07/02 19:21:23;;;;;;;6.65;1.70;;;;;;;-147.53;100.00;57128.34;10514868;28;20547;-80
2023/07/02 19:26:25;;;;;;;8.95;2.05;;;;;;;-147.53;100.00;57128.34;10521880;28;20032;-82
2023/07/02 19:31:27;;;;;;;5.35;1.88;;;;;;;-147.53;100.00;57128.34;10500587;28;20062;-82
2023/07/02 19:36:28;;;;;;;7.82;2.08;;;;;;;-147.53;100.00;57128.34;10515373;28;20040;-82
2023/07/02 19:41:30;;;;;;;5.43;1.73;;;;;;;-147.53;100.00;57128.34;10517192;28;20068;-82
2023/07/02 19:46:35;;;;;;;3.53;1.70;;;;;;;-147.53;100.00;57128.34;10512581;28;20052;-81
2023/07/02 19:51:40;;;;;;;8.82;1.73;;;;;;;-147.53;100.00;57128.34;10506057;28;20040;-82
2023/07/02 19:56:42;;;;;;;7.85;2.05;;;;;;;-147.53;100.00;57128.34;10505824;28;20048;-82
2023/07/02 20:01:46;;;;;;;8.30;2.00;;;;;;;-147.53;100.00;57128.34;10506266;28;20147;-82
2023/07/02 20:06:47;;;;;;;5.55;1.95;;;;;;;-147.53;100.00;57128.34;10513399;28;20089;-82
2023/07/02 20:11:50;;;;;;;8.65;2.13;;;;;;;-147.53;100.00;57128.34;10520060;28;20425;-82
2023/07/02 20:16:52;;;;;;;10.38;2.05;;;;;;;-147.53;100.00;57128.34;10519115;28;20048;-82
2023/07/02 20:21:54;;;;;;;7.50;2.20;;;;;;;-147.53;100.00;57128.34;10516796;28;20048;-81
2023/07/02 20:26:57;;;;;;;9.38;2.10;;;;;;;-147.53;100.00;57128.34;10520012;28;20048;-82
2023/07/02 20:31:59;;;;;;;8.38;2.20;;;;;;;-147.53;100.00;57128.34;10520428;28;20093;-83
2023/07/02 20:37:00;;;;;;;;;;;;;;;-147.53;100.00;57128.34;10514086;28;20052;-83
2023/07/02 20:42:04;;;;;;;5.07;1.70;;;;;;;-147.53;100.00;57128.34;10519182;28;19924;-82
2023/07/02 20:47:08;;;;;;;6.68;1.98;;;;;;;-147.53;100.00;57128.34;10517052;28;20127;-82
2023/07/02 20:52:09;;;;;;;4.57;1.90;;;;;;;-147.53;100.00;57128.34;10497057;28;20078;-83
2023/07/02 20:57:11;;;;;;;4.63;2.08;;;;;;;-147.53;100.00;57128.34;10497013;28;20041;-83
2023/07/02 21:02:13;;;;;;;6.60;1.92;;;;;;;-147.53;100.00;57128.34;10531615;28;20799;-83
2023/07/02 21:07:15;;;;;;;2.75;1.50;;;;;;;-147.53;100.00;57128.34;10517569;28;20076;-81
2023/07/02 21:12:18;;;;;;;9.65;2.13;;;;;;;-147.53;100.00;57128.34;10518231;28;20398;-82
2023/07/02 21:17:20;;;;;;;8.68;1.77;;;;;;;-147.53;100.00;57128.34;10517156;28;20135;-83
2023/07/02 21:22:23;;;;;;;7.00;2.17;;;;;;;-147.53;100.00;57128.34;10492600;28;20045;-83
2023/07/02 21:27:25;;;;;;;6.30;1.60;;;;;;;-147.53;100.00;57128.34;10498491;28;20097;-82
2023/07/02 21:32:27;;;;;;;9.80;1.80;;;;;;;-147.53;100.00;57128.34;10518105;28;20047;-83
2023/07/02 21:37:29;;;;;;;6.88;2.13;;;;;;;-147.53;100.00;57128.34;10499248;28;20047;-83
2023/07/02 21:42:31;;;;;;;4.35;1.65;;;;;;;-147.53;100.00;57128.34;10515793;28;20040;-84
2023/07/02 21:47:32;;;;;;;7.63;2.72;;;;;;;-147.53;100.00;57128.34;10515010;28;20082;-83
2023/07/02 21:52:34;;;;;;;9.05;1.95;;;;;;;-147.53;100.00;57128.34;10497506;28;20134;-81
2023/07/02 21:57:36;;;;;;;4.63;1.80;;;;;;;-147.53;100.00;57128.34;10510702;28;20060;-81
2023/07/02 22:02:37;;;;;;;8.48;2.88;;;;;;;-147.53;100.00;57128.34;10515578;28;20147;-82
2023/07/02 22:07:39;;;;;;;6.78;2.10;;;;;;;-147.53;100.00;57128.34;10496610;28;20167;-82
2023/07/02 22:12:41;;;;;;;7.00;2.28;;;;;;;-147.53;100.00;57128.34;10511376;28;20055;-82
2023/07/02 22:17:42;;;;;;;7.88;1.88;;;;;;;-147.53;100.00;57128.34;10500105;28;20078;-82
2023/07/02 22:22:45;;;;;;;9.95;2.10;;;;;;;-147.53;100.00;57128.34;10520445;28;20082;-81
2023/07/02 22:27:48;;;;;;;6.15;2.13;;;;;;;-147.53;100.00;57128.34;10499872;28;20090;-83
2023/07/02 22:32:50;;;;;;;4.55;1.83;;;;;;;-147.53;100.00;57128.34;10501019;28;20644;-82
2023/07/02 22:37:54;;;;;;;5.90;2.10;;;;;;;-147.53;100.00;57128.34;10518862;28;20078;-82
2023/07/02 22:42:56;;;;;;;12.77;2.00;;;;;;;-147.53;100.00;57128.34;10519024;28;20048;-83